createdAt,value
2017-11-08T00:00:19.716Z,48.47
2017-11-08T00:02:48.075Z,52.35
2017-11-08T00:05:15.692Z,50.05
2017-11-08T00:07:43.258Z,54.47
2017-11-08T00:10:10.828Z,47.53
2017-11-08T00:12:38.436Z,50.83
2017-11-08T00:15:06.050Z,45.22
2017-11-08T00:17:33.611Z,52.40
2017-11-08T00:20:01.977Z,49.88
2017-11-08T00:22:29.578Z,52.17
2017-11-08T00:24:59.098Z,48.05
2017-11-08T00:27:26.678Z,49.97
2017-11-08T00:29:54.266Z,52.53
2017-11-08T00:32:21.845Z,48.13
2017-11-08T00:34:50.214Z,46.22
2017-11-08T00:37:17.764Z,42.92
2017-11-08T00:39:45.315Z,51.50
2017-11-08T00:42:12.901Z,46.85
2017-11-08T00:44:41.242Z,47.58
2017-11-08T00:47:08.852Z,47.35
2017-11-08T00:49:37.180Z,46.65
2017-11-08T00:52:04.745Z,45.90
2017-11-08T00:54:32.343Z,54.90
2017-11-08T00:57:00.681Z,50.60
2017-11-08T00:59:28.244Z,51.03
2017-11-08T01:01:55.821Z,42.25
2017-11-08T01:04:23.430Z,45.67
2017-11-08T01:06:50.993Z,48.45
2017-11-08T01:09:18.563Z,45.42
2017-11-08T01:11:46.178Z,44.00
2017-11-08T01:14:13.738Z,48.05
2017-11-08T01:16:41.290Z,42.97
2017-11-08T01:19:08.896Z,50.42
2017-11-08T01:21:36.464Z,50.22
2017-11-08T01:24:04.056Z,45.15
2017-11-08T01:26:31.610Z,49.75
2017-11-08T01:28:59.214Z,43.35
2017-11-08T01:31:27.556Z,48.72
2017-11-08T01:33:55.121Z,47.05
2017-11-08T01:36:22.746Z,50.53
2017-11-08T01:38:50.318Z,52.28
2017-11-08T01:41:23.566Z,50.28
2017-11-08T01:43:54.364Z,50.03
2017-11-08T01:46:21.926Z,46.65
2017-11-08T01:48:49.523Z,60.17
2017-11-08T01:51:17.846Z,50.78
2017-11-08T01:53:45.450Z,46.55
2017-11-08T01:56:13.029Z,44.47
2017-11-08T01:58:41.390Z,42.62
2017-11-08T02:01:08.982Z,40.25
2017-11-08T02:03:36.544Z,44.92
2017-11-08T02:06:04.145Z,48.38
2017-11-08T02:08:31.727Z,42.33
2017-11-08T02:10:59.319Z,44.65
2017-11-08T02:13:27.650Z,52.45
2017-11-08T02:15:57.018Z,47.20
2017-11-08T02:18:24.579Z,44.05
2017-11-08T02:20:52.178Z,44.85
2017-11-08T02:23:19.742Z,48.75
2017-11-08T02:25:47.350Z,47.50
2017-11-08T02:28:17.857Z,47.70
2017-11-08T02:30:46.241Z,46.08
2017-11-08T02:33:14.595Z,49.30
2017-11-08T02:35:42.154Z,46.97
2017-11-08T02:38:09.805Z,41.78
2017-11-08T02:40:37.361Z,54.10
2017-11-08T02:43:04.921Z,45.70
2017-11-08T02:45:35.381Z,42.35
2017-11-08T02:48:03.715Z,46.47
2017-11-08T02:50:31.271Z,46.37
2017-11-08T02:52:58.865Z,44.65
2017-11-08T02:55:26.471Z,50.53
2017-11-08T02:57:54.032Z,50.10
2017-11-08T03:00:21.624Z,54.05
2017-11-08T03:02:51.151Z,46.75
2017-11-08T03:05:18.764Z,48.60
2017-11-08T03:07:46.345Z,50.53
2017-11-08T03:10:13.911Z,44.67
2017-11-08T03:12:41.522Z,47.72
2017-11-08T03:15:09.855Z,47.10
2017-11-08T03:17:37.411Z,47.80
2017-11-08T03:20:05.008Z,47.55
2017-11-08T03:22:32.560Z,50.42
2017-11-08T03:25:00.179Z,50.75
2017-11-08T03:27:27.741Z,51.85
2017-11-08T03:29:55.310Z,47.08
2017-11-08T03:32:22.914Z,52.92
2017-11-08T03:34:50.513Z,60.38
2017-11-08T03:37:18.078Z,51.83
2017-11-08T03:39:45.638Z,60.42
2017-11-08T03:42:13.234Z,59.65
2017-11-08T03:44:40.790Z,61.33
2017-11-08T03:47:08.397Z,60.85
2017-11-08T03:49:36.719Z,62.08
2017-11-08T03:52:04.274Z,64.30
2017-11-08T03:54:31.854Z,61.70
2017-11-08T03:56:59.451Z,60.60
2017-11-08T03:59:27.768Z,63.08
2017-11-08T04:01:55.441Z,62.30
2017-11-08T04:04:23.032Z,71.20
2017-11-08T04:06:50.622Z,70.18
2017-11-08T04:09:18.237Z,60.00
2017-11-08T04:11:45.796Z,69.20
2017-11-08T04:14:13.367Z,64.70
2017-11-08T04:16:40.992Z,67.07
2017-11-08T04:19:08.567Z,68.65
2017-11-08T04:21:36.117Z,73.85
2017-11-08T04:24:03.720Z,67.37
2017-11-08T04:26:31.289Z,72.35
2017-11-08T04:28:58.889Z,55.50
2017-11-08T04:31:26.494Z,70.12
2017-11-08T04:33:54.062Z,64.93
2017-11-08T04:36:21.653Z,61.05
2017-11-08T04:38:49.983Z,69.60
2017-11-08T04:41:17.586Z,69.22
2017-11-08T04:43:45.940Z,62.97
2017-11-08T04:46:13.549Z,69.07
2017-11-08T04:48:41.139Z,68.93
2017-11-08T04:51:08.695Z,79.53
2017-11-08T04:53:36.296Z,65.00
2017-11-08T04:56:04.628Z,73.18
2017-11-08T04:58:32.222Z,74.12
2017-11-08T05:00:59.809Z,69.60
2017-11-08T05:03:28.163Z,84.53
2017-11-08T05:05:55.771Z,68.55
2017-11-08T05:08:23.330Z,73.60
2017-11-08T05:10:50.885Z,71.72
2017-11-08T05:13:18.532Z,72.68
2017-11-08T05:15:46.098Z,68.10
2017-11-08T05:18:14.444Z,73.90
2017-11-08T05:20:42.064Z,71.90
2017-11-08T05:23:09.624Z,68.47
2017-11-08T05:25:37.224Z,70.80
2017-11-08T05:28:04.793Z,80.55
2017-11-08T05:30:32.729Z,83.65
2017-11-08T05:33:00.315Z,68.30
2017-11-08T05:35:28.657Z,74.20
2017-11-08T05:37:56.254Z,63.28
2017-11-08T05:40:23.865Z,65.12
2017-11-08T05:42:51.430Z,76.37
2017-11-08T05:45:19.014Z,66.05
2017-11-08T05:47:46.622Z,70.50
2017-11-08T05:50:14.954Z,77.85
2017-11-08T05:52:42.516Z,73.72
2017-11-08T05:55:10.103Z,75.43
2017-11-08T05:57:37.733Z,76.65
2017-11-08T06:00:05.337Z,74.95
2017-11-08T06:02:33.667Z,68.97
2017-11-08T06:05:01.251Z,81.75
2017-11-08T06:07:28.830Z,76.28
2017-11-08T06:09:57.202Z,80.10
2017-11-08T06:12:24.769Z,71.78
2017-11-08T06:14:52.397Z,69.28
2017-11-08T06:17:20.000Z,82.22
2017-11-08T06:19:47.632Z,82.12
2017-11-08T06:22:15.190Z,89.07
2017-11-08T06:24:42.798Z,77.35
2017-11-08T06:27:10.370Z,81.97
2017-11-08T06:29:37.965Z,85.82
2017-11-08T06:32:05.580Z,83.05
2017-11-08T06:34:33.989Z,83.55
2017-11-08T06:37:01.559Z,79.25
2017-11-08T06:39:29.162Z,77.93
2017-11-08T06:41:56.810Z,75.95
2017-11-08T06:44:24.422Z,76.78
2017-11-08T06:46:51.973Z,86.68
2017-11-08T06:49:20.351Z,77.68
2017-11-08T06:51:48.682Z,84.18
2017-11-08T06:54:16.279Z,82.53
2017-11-08T06:56:45.214Z,70.15
2017-11-08T06:59:12.774Z,78.18
2017-11-08T07:01:40.366Z,76.30
2017-11-08T07:04:07.977Z,71.72
2017-11-08T07:06:37.383Z,73.60
2017-11-08T07:09:04.985Z,76.40
2017-11-08T07:11:32.577Z,80.07
2017-11-08T07:14:00.902Z,79.57
2017-11-08T07:16:28.511Z,82.72
2017-11-08T07:18:56.839Z,83.97
2017-11-08T07:21:24.403Z,72.20
2017-11-08T07:23:51.990Z,77.78
2017-11-08T07:26:19.549Z,79.47
2017-11-08T07:28:47.150Z,89.90
2017-11-08T07:31:14.707Z,75.80
2017-11-08T07:33:43.066Z,81.60
2017-11-08T07:36:11.388Z,85.12
2017-11-08T07:38:39.151Z,86.07
2017-11-08T07:41:06.711Z,79.35
2017-11-08T07:43:34.318Z,96.28
2017-11-08T07:46:01.934Z,92.78
2017-11-08T07:48:29.535Z,94.60
2017-11-08T07:50:57.199Z,85.05
2017-11-08T07:56:38.372Z,80.62
2017-11-08T07:59:17.693Z,85.15
2017-11-08T08:01:46.981Z,92.88
2017-11-08T08:04:14.709Z,85.90
2017-11-08T08:06:43.086Z,86.78
2017-11-08T08:09:18.252Z,86.75
2017-11-08T08:11:51.953Z,80.57
2017-11-08T08:14:21.220Z,82.18
2017-11-08T08:16:49.361Z,86.35
2017-11-08T08:23:20.905Z,79.22
2017-11-08T08:26:14.292Z,85.05
2017-11-08T08:35:04.212Z,85.38
2017-11-08T08:37:31.847Z,83.12
2017-11-08T08:40:00.229Z,77.90
2017-11-08T08:42:27.818Z,87.47
2017-11-08T08:44:55.667Z,90.68
2017-11-08T08:47:24.313Z,90.25
2017-11-08T08:49:52.697Z,89.32
2017-11-08T08:52:23.275Z,86.90
2017-11-08T08:54:54.417Z,85.55
2017-11-08T08:57:23.460Z,85.40
2017-11-08T08:59:51.149Z,74.47
2017-11-08T09:02:23.153Z,78.10
2017-11-08T09:04:50.785Z,85.30
2017-11-08T09:07:19.166Z,78.30
2017-11-08T09:09:46.779Z,77.70
2017-11-08T09:12:14.392Z,69.10
2017-11-08T09:14:42.774Z,61.63
2017-11-08T09:20:00.600Z,25.48
2017-11-08T09:22:28.170Z,15.02
2017-11-08T09:24:55.911Z,16.80
2017-11-08T09:27:23.494Z,15.35
2017-11-08T09:29:55.932Z,12.37
2017-11-08T09:32:24.313Z,17.10
2017-11-08T09:34:52.382Z,12.07
2017-11-08T09:37:25.694Z,14.23
2017-11-08T09:39:53.289Z,15.80
2017-11-08T09:42:21.655Z,15.05
2017-11-08T09:44:49.277Z,11.18
2017-11-08T09:47:18.674Z,11.95
2017-11-08T09:49:46.254Z,12.15
2017-11-08T09:52:13.855Z,12.98
2017-11-08T09:54:42.256Z,13.02
2017-11-08T09:57:10.619Z,12.85
2017-11-08T09:59:38.326Z,15.82
2017-11-08T10:02:05.895Z,15.43
2017-11-08T10:04:33.469Z,14.95
2017-11-08T10:07:01.092Z,20.88
2017-11-08T10:09:29.583Z,17.67
2017-11-08T10:12:02.148Z,13.93
2017-11-08T10:14:29.839Z,20.15
2017-11-08T10:16:57.879Z,25.08
2017-11-08T10:19:33.931Z,22.15
2017-11-08T10:22:16.983Z,25.67
2017-11-08T10:24:46.408Z,23.92
2017-11-08T10:27:13.982Z,23.05
2017-11-08T10:29:41.571Z,23.65
2017-11-08T10:32:09.180Z,30.50
2017-11-08T10:34:36.791Z,28.15
2017-11-08T10:37:04.367Z,31.08
2017-11-08T10:39:32.689Z,34.22
2017-11-08T10:44:28.298Z,29.92
2017-11-08T10:46:56.269Z,37.47
2017-11-08T10:49:31.377Z,34.78
2017-11-08T10:51:59.379Z,41.83
2017-11-08T10:54:31.084Z,46.58
2017-11-08T10:56:58.924Z,45.60
2017-11-08T10:59:27.786Z,46.20
2017-11-08T11:02:00.278Z,35.30
2017-11-08T11:04:29.023Z,44.50
2017-11-08T11:06:57.046Z,47.38
2017-11-08T11:09:24.700Z,48.22
2017-11-08T11:11:52.415Z,58.13
2017-11-08T11:14:19.986Z,58.60
2017-11-08T11:16:47.805Z,52.38
2017-11-08T11:19:21.300Z,70.60
2017-11-08T11:21:49.696Z,60.28
2017-11-08T11:24:19.372Z,47.60
2017-11-08T11:26:48.701Z,84.10
2017-11-08T11:29:17.080Z,55.53
2017-11-08T11:31:45.406Z,60.80
2017-11-08T11:34:12.986Z,55.55
2017-11-08T11:36:41.394Z,66.47
2017-11-08T11:39:13.011Z,70.68
2017-11-08T11:41:40.619Z,59.28
2017-11-08T11:44:09.022Z,53.80
2017-11-08T11:46:38.399Z,61.47
2017-11-08T11:49:10.996Z,50.83
2017-11-08T11:51:38.634Z,54.17
2017-11-08T11:54:07.024Z,49.15
2017-11-08T11:56:35.363Z,54.90
2017-11-08T11:59:02.936Z,52.38
2017-11-08T12:01:30.538Z,63.47
2017-11-08T12:03:58.862Z,67.82
2017-11-08T12:06:27.558Z,60.38
2017-11-08T12:08:55.139Z,51.67
2017-11-08T12:11:23.551Z,64.95
2017-11-08T12:13:51.896Z,47.10
2017-11-08T12:16:19.584Z,53.38
2017-11-08T12:18:47.952Z,63.13
2017-11-08T12:21:16.296Z,52.67
2017-11-08T12:23:43.947Z,49.08
2017-11-08T12:26:11.509Z,51.35
2017-11-08T12:28:44.927Z,52.80
2017-11-08T12:31:12.530Z,62.42
2017-11-08T12:33:41.030Z,54.38
2017-11-08T12:36:08.863Z,52.38
2017-11-08T12:38:38.065Z,52.62
2017-11-08T12:41:05.667Z,46.35
2017-11-08T12:43:33.281Z,44.33
2017-11-08T12:46:00.944Z,54.45
2017-11-08T12:48:30.110Z,41.13
2017-11-08T12:50:57.713Z,48.63
2017-11-08T12:53:26.125Z,48.70
2017-11-08T12:55:54.759Z,50.40
2017-11-08T12:58:22.417Z,52.25
2017-11-08T13:00:50.030Z,51.30
2017-11-08T13:03:17.628Z,38.97
2017-11-08T13:06:04.883Z,38.72
2017-11-08T13:08:33.294Z,42.22
2017-11-08T13:11:05.713Z,45.15
2017-11-08T13:13:33.354Z,40.88
2017-11-08T13:16:00.989Z,44.05
2017-11-08T13:18:28.643Z,50.22
2017-11-08T13:20:56.282Z,41.72
2017-11-08T13:23:23.851Z,37.97
2017-11-08T13:25:52.230Z,42.58
2017-11-08T13:28:20.592Z,50.20
2017-11-08T13:30:48.300Z,45.70
2017-11-08T13:33:15.903Z,46.35
2017-11-08T13:35:43.498Z,40.10
2017-11-08T13:38:11.825Z,38.22
2017-11-08T13:40:39.437Z,40.63
2017-11-08T13:43:07.783Z,39.30
2017-11-08T13:45:35.398Z,38.90
2017-11-08T13:48:02.994Z,32.72
2017-11-08T13:50:30.599Z,30.73
2017-11-08T13:52:58.970Z,40.00
2017-11-08T13:55:26.530Z,39.50
2017-11-08T13:57:55.585Z,42.80
2017-11-08T14:00:23.327Z,36.65
2017-11-08T14:02:50.968Z,28.50
2017-11-08T14:05:19.343Z,33.95
2017-11-08T14:07:46.913Z,35.22
2017-11-08T14:10:14.538Z,36.75
2017-11-08T14:12:42.236Z,30.10
2017-11-08T14:15:10.657Z,34.15
2017-11-08T14:17:38.268Z,25.58
2017-11-08T14:20:06.676Z,30.50
2017-11-08T14:22:34.263Z,32.42
2017-11-08T14:25:01.824Z,26.23
2017-11-08T14:27:30.447Z,34.65
2017-11-08T14:30:16.852Z,32.55
2017-11-08T14:32:48.066Z,30.45
2017-11-08T14:35:17.998Z,25.23
2017-11-08T14:37:47.046Z,25.00
2017-11-08T14:40:17.027Z,31.52
2017-11-08T14:42:47.238Z,32.05
2017-11-08T14:45:15.443Z,32.63
2017-11-08T14:47:43.276Z,24.90
2017-11-08T14:50:11.121Z,32.08
2017-11-08T14:52:38.700Z,31.87
2017-11-08T14:55:07.052Z,30.10
2017-11-08T14:57:34.649Z,31.42
2017-11-08T15:00:02.231Z,27.20
2017-11-08T15:02:30.611Z,27.45
2017-11-08T15:04:58.995Z,31.60
2017-11-08T15:07:26.627Z,36.20
2017-11-08T15:12:55.635Z,27.65
2017-11-08T15:15:23.247Z,28.15
2017-11-08T15:17:50.973Z,30.40
2017-11-08T15:20:24.479Z,24.37
2017-11-08T15:22:52.076Z,31.12
2017-11-08T15:25:19.706Z,32.10
2017-11-08T15:27:47.375Z,34.08
2017-11-08T15:30:21.552Z,29.30
2017-11-08T15:32:49.164Z,28.15
2017-11-08T15:35:17.524Z,35.30
2017-11-08T15:37:45.191Z,27.27
2017-11-08T15:40:16.758Z,36.53
2017-11-08T15:42:45.153Z,33.35
2017-11-08T15:45:12.723Z,37.65
2017-11-08T15:47:40.347Z,29.95
2017-11-08T15:50:07.978Z,33.95
2017-11-08T15:52:35.574Z,31.00
2017-11-08T15:55:10.498Z,36.90
2017-11-08T15:57:38.073Z,51.80
2017-11-08T16:00:07.089Z,35.20
2017-11-08T16:02:34.986Z,43.00
2017-11-08T16:05:02.559Z,31.20
2017-11-08T16:07:30.168Z,36.65
2017-11-08T16:09:57.738Z,47.80
2017-11-08T16:12:25.394Z,39.25
2017-11-08T16:14:53.021Z,43.03
2017-11-08T16:17:20.585Z,34.10
2017-11-08T16:19:48.138Z,40.35
2017-11-08T16:22:15.760Z,36.67
2017-11-08T16:24:43.331Z,34.78
2017-11-08T16:27:10.899Z,34.25
2017-11-08T16:29:38.590Z,39.13
2017-11-08T16:32:06.167Z,36.58
2017-11-08T16:34:34.524Z,33.35
2017-11-08T16:37:02.102Z,35.92
2017-11-08T16:39:30.493Z,36.70
2017-11-08T16:41:58.810Z,31.90
2017-11-08T16:44:26.422Z,29.23
2017-11-08T16:46:54.750Z,27.80
2017-11-08T16:49:22.336Z,29.98
2017-11-08T16:51:49.946Z,38.95
2017-11-08T16:54:17.506Z,36.30
2017-11-08T16:56:45.095Z,30.17
2017-11-08T16:59:12.763Z,24.15
2017-11-08T17:01:41.134Z,32.42
2017-11-08T17:04:08.719Z,27.37
2017-11-08T17:06:36.278Z,29.55
2017-11-08T17:09:05.888Z,32.58
2017-11-08T17:11:35.836Z,32.45
2017-11-08T17:14:06.236Z,34.00
2017-11-08T17:16:36.137Z,29.98
2017-11-08T17:19:08.348Z,59.60
2017-11-08T17:21:38.896Z,31.35
2017-11-08T17:24:08.476Z,34.75
2017-11-08T17:26:39.350Z,27.73
2017-11-08T17:29:08.971Z,29.15
2017-11-08T17:31:40.407Z,36.53
2017-11-08T17:34:11.289Z,28.05
2017-11-08T17:36:40.851Z,29.98
2017-11-08T17:39:11.675Z,31.48
2017-11-08T17:41:43.113Z,32.35
2017-11-08T17:44:15.581Z,32.78
2017-11-08T17:46:45.417Z,36.80
2017-11-08T17:49:15.931Z,36.95
2017-11-08T17:51:46.471Z,31.20
2017-11-08T17:54:17.296Z,35.88
2017-11-08T17:56:48.984Z,33.50
2017-11-08T17:59:20.750Z,28.45
2017-11-08T18:01:51.390Z,31.62
2017-11-08T18:04:21.299Z,38.08
2017-11-08T18:06:50.916Z,31.48
2017-11-08T18:09:20.656Z,35.63
2017-11-08T18:11:50.429Z,25.00
2017-11-08T18:14:21.549Z,34.13
2017-11-08T18:16:52.024Z,29.50
2017-11-08T18:19:22.112Z,35.08
2017-11-08T18:21:52.506Z,43.78
2017-11-08T18:24:23.249Z,34.40
2017-11-08T18:26:53.620Z,38.88
2017-11-08T18:29:23.512Z,34.50
2017-11-08T18:31:54.154Z,33.15
2017-11-08T18:34:24.726Z,38.65
2017-11-08T18:36:54.797Z,35.90
2017-11-08T18:39:24.888Z,29.90
2017-11-08T18:41:57.396Z,24.67
2017-11-08T18:44:27.146Z,29.17
2017-11-08T18:46:56.929Z,44.28
2017-11-08T18:49:26.540Z,31.50
2017-11-08T18:51:55.680Z,33.15
2017-11-08T18:54:25.369Z,40.70
2017-11-08T18:56:56.116Z,32.83
2017-11-08T18:59:26.659Z,33.67
2017-11-08T19:01:56.986Z,42.58
2017-11-08T19:04:27.364Z,34.33
2017-11-08T19:06:56.645Z,40.40
2017-11-08T19:09:27.211Z,41.72
2017-11-08T19:11:57.325Z,45.35
2017-11-08T19:14:28.138Z,45.05
2017-11-08T19:16:57.910Z,50.03
2017-11-08T19:19:27.695Z,52.35
2017-11-08T19:22:00.338Z,44.40
2017-11-08T19:24:30.346Z,41.63
2017-11-08T19:27:01.287Z,59.35
2017-11-08T19:29:32.455Z,38.33
2017-11-08T19:32:02.354Z,45.45
2017-11-08T19:34:35.305Z,37.35
2017-11-08T19:37:05.367Z,35.00
2017-11-08T19:39:35.280Z,40.78
2017-11-08T19:42:05.661Z,32.55
2017-11-08T19:44:37.832Z,34.30
2017-11-08T19:47:06.947Z,31.75
2017-11-08T19:49:38.243Z,46.65
2017-11-08T19:52:07.968Z,32.55
2017-11-08T19:54:41.618Z,38.85
2017-11-08T19:57:11.249Z,34.30
2017-11-08T19:59:41.152Z,38.50
2017-11-08T20:02:10.615Z,42.92
2017-11-08T20:04:38.209Z,32.35
2017-11-08T20:07:05.797Z,37.83
2017-11-08T20:09:34.261Z,35.13
2017-11-08T20:12:01.843Z,44.10
2017-11-08T20:14:29.469Z,36.55
2017-11-08T20:16:57.037Z,36.13
2017-11-08T20:19:24.642Z,40.60
2017-11-08T20:21:52.261Z,46.72
2017-11-08T20:24:19.823Z,43.00
2017-11-08T20:26:47.402Z,36.90
2017-11-08T20:29:15.007Z,38.65
2017-11-08T20:31:42.604Z,42.88
2017-11-08T20:34:10.163Z,38.08
2017-11-08T20:36:37.757Z,50.45
2017-11-08T20:39:05.356Z,56.88
2017-11-08T20:41:32.916Z,39.40
2017-11-08T20:44:00.558Z,45.00
2017-11-08T20:46:28.147Z,49.13
2017-11-08T20:48:56.519Z,41.95
2017-11-08T20:51:24.146Z,43.42
2017-11-08T20:53:51.749Z,31.83
2017-11-08T20:56:20.104Z,45.33
2017-11-08T20:58:47.671Z,35.05
2017-11-08T21:01:15.405Z,45.60
2017-11-08T21:03:46.449Z,36.10
2017-11-08T21:06:15.617Z,36.08
2017-11-08T21:08:43.302Z,34.72
2017-11-08T21:11:10.920Z,38.85
2017-11-08T21:13:39.303Z,42.65
2017-11-08T21:16:07.771Z,37.00
2017-11-08T21:18:35.414Z,39.85
2017-11-08T21:21:03.026Z,38.97
2017-11-08T21:23:30.664Z,40.75
2017-11-08T21:25:59.082Z,37.00
2017-11-08T21:28:26.651Z,39.13
2017-11-08T21:30:54.299Z,48.33
2017-11-08T21:33:21.913Z,37.20
2017-11-08T21:35:49.474Z,43.83
2017-11-08T21:38:17.091Z,42.70
2017-11-08T21:40:44.782Z,43.75
2017-11-08T21:43:13.641Z,45.08
2017-11-08T21:45:41.275Z,41.25
2017-11-08T21:48:09.671Z,45.83
2017-11-08T21:50:37.364Z,35.45
2017-11-08T21:53:05.262Z,45.22
2017-11-08T21:55:32.875Z,48.40
2017-11-08T21:58:00.589Z,40.83
2017-11-08T22:00:29.127Z,39.30
2017-11-08T22:02:56.812Z,34.13
2017-11-08T22:05:24.568Z,34.22
2017-11-08T22:07:52.282Z,40.90
2017-11-08T22:10:20.705Z,34.30
2017-11-08T22:12:48.461Z,29.15
2017-11-08T22:15:16.080Z,34.15
2017-11-08T22:17:44.435Z,33.45
2017-11-08T22:20:12.060Z,32.63
2017-11-08T22:22:39.676Z,37.25
2017-11-08T22:25:08.056Z,36.78
2017-11-08T22:27:36.560Z,36.05
2017-11-08T22:30:04.977Z,31.80
2017-11-08T22:32:32.624Z,30.35
2017-11-08T22:35:00.235Z,26.90
2017-11-08T22:37:27.966Z,27.37
2017-11-08T22:39:55.715Z,30.58
2017-11-08T22:42:23.274Z,29.95
2017-11-08T22:44:50.871Z,28.80
2017-11-08T22:47:18.446Z,30.30
2017-11-08T22:49:46.044Z,34.35
2017-11-08T22:52:13.660Z,33.17
2017-11-08T22:54:41.238Z,28.55
2017-11-08T22:57:09.542Z,31.52
2017-11-08T22:59:37.148Z,31.00
2017-11-08T23:02:04.731Z,33.08
2017-11-08T23:04:32.284Z,25.25
2017-11-08T23:06:59.891Z,40.15
2017-11-08T23:09:27.483Z,35.03
2017-11-08T23:11:55.104Z,26.87
2017-11-08T23:14:23.431Z,33.47
2017-11-08T23:16:51.034Z,34.20
2017-11-08T23:19:19.373Z,25.50
2017-11-08T23:21:46.947Z,30.88
2017-11-08T23:24:14.543Z,28.33
2017-11-08T23:26:42.912Z,33.92
2017-11-08T23:29:11.242Z,29.37
2017-11-08T23:31:38.818Z,28.77
2017-11-08T23:34:06.412Z,31.45
2017-11-08T23:36:34.731Z,32.47
2017-11-08T23:39:02.327Z,24.98
2017-11-08T23:41:29.931Z,28.92
2017-11-08T23:43:57.489Z,36.35
2017-11-08T23:46:25.107Z,30.90
2017-11-08T23:48:52.677Z,30.12
2017-11-08T23:51:21.055Z,30.50
2017-11-08T23:53:48.610Z,28.20
2017-11-08T23:56:17.147Z,32.90
2017-11-08T23:58:44.718Z,29.83
